Terminal Aerodrome Forecast
Issued by NWS

Home | Current Version | Previous Version | Text Only | Print | Product List | Glossary On
Versions: 1 2 3 4 5 6 7 8 9 10 11 12 13 14 15 16 17 18 19 20 21 22 23 24
130
FTUS46 KSEW 180348 AAB
TAFSEA
TAF AMD
KSEA 180348Z 1804/1906 12004KT 4SM RA BR FEW002 BKN005 OVC035
     FM180600 16010KT 5SM -RA BR SCT007 BKN020 OVC035
     FM182200 20012KT P6SM -SHRA BKN025 BKN050=

USA.gov is the U.S. government's official web portal to all federal, state and local government web resources and services.